Time;durP1;ratioP1;P1;durP2;ratioP2;P2;SDS_P1;SDS_P2;PMS_P1;PMS_P2;Temp;Humidity;BMP_temperature;BMP_pressure;BME280_temperature;BME280_humidity;BME280_pressure;Samples;Min_cycle;Max_cycle;Signal;HPM_P1;HPM_P2
2023/01/15 00:01:33;;;;;;;1.40;0.70;;;;;;;;;;5051416;28;20044;-69
2023/01/15 00:04:18;;;;;;;1.02;0.70;;;;;;;;;;5053241;28;20075;-69
2023/01/15 00:07:03;;;;;;;1.25;0.75;;;;;;;;;;5046977;28;20067;-69
2023/01/15 00:09:49;;;;;;;2.67;0.98;;;;;;;;;;5054382;28;20033;-68
2023/01/15 00:12:34;;;;;;;0.70;0.70;;;;;;;;;;5047067;28;20067;-75
2023/01/15 00:15:19;;;;;;;2.28;0.82;;;;;;;;;;5067834;28;20060;-74
2023/01/15 00:18:04;;;;;;;0.70;0.70;;;;;;;;;;5055946;28;20039;-74
2023/01/15 00:20:57;;;;;;;1.80;0.52;;;;;;;;;;5049019;28;20032;-74
2023/01/15 00:29:50;;;;;;;0.98;0.77;;;;;;;;;;5058369;28;20037;-73
2023/01/15 00:32:35;;;;;;;2.03;0.80;;;;;;;;;;5047849;28;20029;-70
2023/01/15 00:35:22;;;;;;;1.40;0.80;;;;;;;;;;5046845;28;20364;-73
2023/01/15 00:38:07;;;;;;;0.95;0.80;;;;;;;;;;5049949;28;20087;-74
2023/01/15 00:40:52;;;;;;;1.75;0.60;;;;;;;;;;5060607;28;20076;-73
2023/01/15 00:43:37;;;;;;;2.15;0.95;;;;;;;;;;5056421;28;20031;-73
2023/01/15 00:46:22;;;;;;;0.77;0.60;;;;;;;;;;5062799;28;20086;-75
2023/01/15 00:49:08;;;;;;;0.65;0.57;;;;;;;;;;5053412;28;20048;-72
2023/01/15 00:51:53;;;;;;;0.90;0.90;;;;;;;;;;5031244;28;20037;-72
2023/01/15 00:54:38;;;;;;;0.50;0.50;;;;;;;;;;5035863;28;20021;-72
2023/01/15 00:57:24;;;;;;;0.90;0.68;;;;;;;;;;5054792;28;20272;-73
2023/01/15 01:00:11;;;;;;;1.80;0.60;;;;;;;;;;5044546;28;20369;-73
2023/01/15 01:02:56;;;;;;;1.10;0.68;;;;;;;;;;5050817;28;20047;-73
2023/01/15 01:05:41;;;;;;;1.23;0.77;;;;;;;;;;5062190;28;20056;-72
2023/01/15 01:08:27;;;;;;;3.15;0.70;;;;;;;;;;5066178;28;20060;-72
2023/01/15 01:11:14;;;;;;;2.58;0.75;;;;;;;;;;5037297;28;20425;-71
2023/01/15 01:14:00;;;;;;;1.63;0.90;;;;;;;;;;5047389;28;20037;-71
2023/01/15 01:16:45;;;;;;;0.77;0.70;;;;;;;;;;5062548;28;20025;-70
2023/01/15 01:19:30;;;;;;;1.00;0.70;;;;;;;;;;5046369;28;20542;-72
2023/01/15 01:22:15;;;;;;;1.08;0.85;;;;;;;;;;5035516;28;20056;-71
2023/01/15 01:25:01;;;;;;;0.65;0.65;;;;;;;;;;5053700;28;20115;-72
2023/01/15 01:27:46;;;;;;;3.35;0.73;;;;;;;;;;5028219;28;20124;-68
2023/01/15 01:30:31;;;;;;;2.15;0.70;;;;;;;;;;5065554;28;20048;-71
2023/01/15 01:33:17;;;;;;;0.63;0.60;;;;;;;;;;5031563;28;20449;-69
2023/01/15 01:36:02;;;;;;;0.73;0.70;;;;;;;;;;5047470;28;20521;-70
2023/01/15 01:38:50;;;;;;;0.93;0.70;;;;;;;;;;5046231;28;20480;-70
2023/01/15 01:41:35;;;;;;;0.73;0.73;;;;;;;;;;5063481;28;20021;-70
2023/01/15 01:44:36;;;;;;;0.88;0.60;;;;;;;;;;5051470;28;20033;-70
2023/01/15 01:47:25;;;;;;;0.60;0.60;;;;;;;;;;5050708;28;20115;-70
2023/01/15 01:50:11;;;;;;;;;;;;;;;;;;5045285;28;20029;-70
2023/01/15 01:52:58;;;;;;;0.60;0.60;;;;;;;;;;5042849;28;20001;-71
2023/01/15 01:55:43;;;;;;;1.35;0.98;;;;;;;;;;5058245;28;20396;-68
2023/01/15 01:58:31;;;;;;;1.23;0.88;;;;;;;;;;5044525;28;20116;-68
2023/01/15 02:01:16;;;;;;;0.68;0.68;;;;;;;;;;5048873;28;20050;-70
2023/01/15 02:04:05;;;;;;;1.52;0.90;;;;;;;;;;5051641;28;20130;-66
2023/01/15 02:06:50;;;;;;;0.60;0.60;;;;;;;;;;5059959;28;20147;-63
2023/01/15 02:09:35;;;;;;;1.85;0.90;;;;;;;;;;5043713;28;20086;-65
2023/01/15 02:12:26;;;;;;;0.80;0.70;;;;;;;;;;5046507;28;20031;-64
2023/01/15 02:15:17;;;;;;;1.10;0.60;;;;;;;;;;5044181;28;20040;-65
2023/01/15 02:18:26;;;;;;;2.75;0.80;;;;;;;;;;5045656;28;20162;-65
2023/01/15 02:21:18;;;;;;;0.57;0.57;;;;;;;;;;5041092;28;20595;-65
2023/01/15 02:24:03;;;;;;;0.60;0.60;;;;;;;;;;5060245;28;20430;-69
2023/01/15 02:26:54;;;;;;;0.80;0.50;;;;;;;;;;5031855;28;20127;-68
2023/01/15 02:29:39;;;;;;;1.15;0.60;;;;;;;;;;5057651;28;20021;-70
2023/01/15 02:32:44;;;;;;;0.60;0.60;;;;;;;;;;5060049;28;20435;-70
2023/01/15 02:35:33;;;;;;;0.52;0.52;;;;;;;;;;5050047;28;20055;-69
2023/01/15 02:38:21;;;;;;;0.50;0.50;;;;;;;;;;5040296;28;20044;-69
2023/01/15 02:41:15;;;;;;;0.57;0.57;;;;;;;;;;5053687;28;20753;-68
2023/01/15 02:44:01;;;;;;;1.05;0.57;;;;;;;;;;5046145;28;20438;-68
2023/01/15 02:46:47;;;;;;;0.50;0.50;;;;;;;;;;5040813;28;20423;-70
2023/01/15 02:49:33;;;;;;;0.88;0.60;;;;;;;;;;5046185;28;20035;-68
2023/01/15 02:52:21;;;;;;;0.40;0.40;;;;;;;;;;5045391;28;20583;-69
2023/01/15 02:55:09;;;;;;;1.00;0.52;;;;;;;;;;5043567;28;20037;-69
2023/01/15 02:57:57;;;;;;;0.88;0.60;;;;;;;;;;5058790;28;20029;-70
2023/01/15 03:00:45;;;;;;;0.50;0.50;;;;;;;;;;5045619;28;20039;-73
2023/01/15 03:04:06;;;;;;;0.63;0.60;;;;;;;;;;5066556;28;20033;-73
2023/01/15 03:06:56;;;;;;;0.55;0.55;;;;;;;;;;5024587;28;20329;-74
2023/01/15 03:09:41;;;;;;;0.40;0.40;;;;;;;;;;5053026;28;20106;-75
2023/01/15 03:12:26;;;;;;;0.70;0.70;;;;;;;;;;5065844;28;20154;-73
2023/01/15 03:16:33;;;;;;;0.90;0.55;;;;;;;;;;5057116;28;20037;-73
2023/01/15 03:18:28;;;;;;;0.60;0.60;;;;;;;;;;5038937;28;20047;-69
2023/01/15 03:21:16;;;;;;;1.40;0.50;;;;;;;;;;5050252;28;20040;-70
2023/01/15 03:24:03;;;;;;;0.63;0.60;;;;;;;;;;5040018;28;20037;-70
2023/01/15 03:26:48;;;;;;;0.57;0.50;;;;;;;;;;5049614;28;20522;-69
2023/01/15 03:29:36;;;;;;;0.40;0.40;;;;;;;;;;5050074;28;20623;-71
2023/01/15 03:32:22;;;;;;;0.52;0.50;;;;;;;;;;5046879;28;20083;-72
2023/01/15 03:35:27;;;;;;;0.77;0.60;;;;;;;;;;5049218;28;20075;-66
2023/01/15 03:38:13;;;;;;;0.40;0.40;;;;;;;;;;5081917;22;20049;-66
2023/01/15 03:41:05;;;;;;;0.45;0.45;;;;;;;;;;5057003;28;20023;-67
2023/01/15 03:43:54;;;;;;;1.00;0.50;;;;;;;;;;5055470;28;20040;-67
2023/01/15 03:46:42;;;;;;;0.50;0.50;;;;;;;;;;5067821;28;20075;-65
2023/01/15 03:49:27;;;;;;;0.50;0.50;;;;;;;;;;5066301;28;20941;-68
2023/01/15 03:52:18;;;;;;;0.43;0.43;;;;;;;;;;5068120;28;20468;-67
2023/01/15 03:55:18;;;;;;;0.85;0.85;;;;;;;;;;5067410;28;20048;-63
2023/01/15 03:58:18;;;;;;;0.50;0.50;;;;;;;;;;5062669;28;20678;-67
2023/01/15 04:01:06;;;;;;;0.47;0.47;;;;;;;;;;5053548;28;20138;-68
2023/01/15 04:03:52;;;;;;;0.50;0.50;;;;;;;;;;5067277;28;20025;-67
2023/01/15 04:06:39;;;;;;;0.73;0.45;;;;;;;;;;5064849;28;20032;-68
2023/01/15 04:09:24;;;;;;;1.05;0.47;;;;;;;;;;5064753;28;20020;-67
2023/01/15 04:12:09;;;;;;;0.60;0.47;;;;;;;;;;5074135;28;20052;-66
2023/01/15 04:14:54;;;;;;;0.40;0.40;;;;;;;;;;5078642;28;20491;-68
2023/01/15 04:17:40;;;;;;;0.85;0.63;;;;;;;;;;5051234;28;20484;-69
2023/01/15 04:20:25;;;;;;;0.52;0.52;;;;;;;;;;5050853;28;20095;-68
2023/01/15 04:23:10;;;;;;;0.50;0.50;;;;;;;;;;5052572;28;20506;-67
2023/01/15 04:25:56;;;;;;;0.50;0.50;;;;;;;;;;5068964;28;20043;-69
2023/01/15 04:28:41;;;;;;;0.57;0.50;;;;;;;;;;5063684;28;20526;-71
2023/01/15 04:31:26;;;;;;;0.40;0.40;;;;;;;;;;5068013;28;20029;-72
2023/01/15 04:34:12;;;;;;;0.38;0.38;;;;;;;;;;5066855;28;20059;-77
2023/01/15 04:36:57;;;;;;;0.60;0.47;;;;;;;;;;5047949;28;20574;-74
2023/01/15 04:39:42;;;;;;;0.40;0.40;;;;;;;;;;5045988;28;20063;-75
2023/01/15 04:45:31;;;;;;;1.08;0.40;;;;;;;;;;5043794;28;20021;-75
2023/01/15 04:48:17;;;;;;;3.17;0.50;;;;;;;;;;5033838;28;20090;-69
2023/01/15 04:51:03;;;;;;;0.50;0.50;;;;;;;;;;5048091;28;20039;-68
2023/01/15 04:53:48;;;;;;;0.50;0.50;;;;;;;;;;5046901;28;20044;-71
2023/01/15 04:56:37;;;;;;;0.55;0.40;;;;;;;;;;5047966;28;20380;-73
2023/01/15 04:59:25;;;;;;;0.73;0.50;;;;;;;;;;5031514;28;20076;-69
2023/01/15 05:02:10;;;;;;;0.55;0.50;;;;;;;;;;5041803;28;20392;-71
2023/01/15 05:04:55;;;;;;;0.40;0.40;;;;;;;;;;5048607;28;20074;-70
2023/01/15 05:07:40;;;;;;;0.40;0.40;;;;;;;;;;5047776;28;20102;-74
2023/01/15 05:10:26;;;;;;;0.43;0.43;;;;;;;;;;5029550;28;20029;-67
2023/01/15 05:13:11;;;;;;;2.08;0.50;;;;;;;;;;5048614;28;20686;-69
2023/01/15 05:15:56;;;;;;;0.60;0.60;;;;;;;;;;5053868;28;20025;-66
2023/01/15 05:18:42;;;;;;;0.50;0.50;;;;;;;;;;5047600;28;20041;-70
2023/01/15 05:21:30;;;;;;;0.50;0.50;;;;;;;;;;5043465;28;20361;-69
2023/01/15 05:24:16;;;;;;;2.13;0.50;;;;;;;;;;5027384;28;20024;-68
2023/01/15 05:27:04;;;;;;;0.65;0.65;;;;;;;;;;5042071;28;20499;-72
2023/01/15 05:29:49;;;;;;;1.13;0.60;;;;;;;;;;5039685;28;20028;-63
2023/01/15 05:32:34;;;;;;;0.90;0.63;;;;;;;;;;5046630;28;20413;-63
2023/01/15 05:35:19;;;;;;;0.70;0.50;;;;;;;;;;5042605;28;20045;-62
2023/01/15 05:38:05;;;;;;;0.40;0.40;;;;;;;;;;5043933;28;20045;-62
2023/01/15 05:40:50;;;;;;;0.50;0.50;;;;;;;;;;5046353;28;20317;-63
2023/01/15 05:43:36;;;;;;;0.50;0.50;;;;;;;;;;5045290;28;20025;-67
2023/01/15 05:46:21;;;;;;;0.60;0.60;;;;;;;;;;5052722;28;20242;-63
2023/01/15 05:49:07;;;;;;;0.57;0.40;;;;;;;;;;5031957;28;20020;-65
2023/01/15 05:51:53;;;;;;;0.30;0.30;;;;;;;;;;5047218;28;20029;-64
2023/01/15 05:54:38;;;;;;;0.40;0.40;;;;;;;;;;5032140;28;20024;-62
2023/01/15 05:57:24;;;;;;;0.50;0.50;;;;;;;;;;5043910;28;20529;-63
2023/01/15 06:00:09;;;;;;;0.40;0.40;;;;;;;;;;5046870;28;20307;-61
2023/01/15 06:02:54;;;;;;;0.40;0.40;;;;;;;;;;5046812;28;20078;-71
2023/01/15 06:05:40;;;;;;;1.13;0.38;;;;;;;;;;5029830;28;20021;-68
2023/01/15 06:08:25;;;;;;;1.67;0.40;;;;;;;;;;5043381;28;20029;-68
2023/01/15 06:11:10;;;;;;;0.40;0.40;;;;;;;;;;5042494;28;20024;-67
2023/01/15 06:13:56;;;;;;;0.40;0.40;;;;;;;;;;5044974;28;20494;-71
2023/01/15 06:16:41;;;;;;;0.40;0.40;;;;;;;;;;5041312;28;20017;-68
2023/01/15 06:19:26;;;;;;;0.30;0.30;;;;;;;;;;5037739;28;20434;-69
2023/01/15 06:22:11;;;;;;;0.30;0.30;;;;;;;;;;5041128;28;20031;-64
2023/01/15 06:24:56;;;;;;;0.45;0.45;;;;;;;;;;5043710;28;20044;-64
2023/01/15 06:27:43;;;;;;;0.40;0.40;;;;;;;;;;5042987;28;20106;-64
2023/01/15 06:30:28;;;;;;;0.40;0.40;;;;;;;;;;5037957;28;20028;-63
2023/01/15 06:33:13;;;;;;;0.50;0.50;;;;;;;;;;5042985;28;20074;-64
2023/01/15 06:36:06;;;;;;;3.22;0.50;;;;;;;;;;5042480;28;20553;-62
2023/01/15 06:38:51;;;;;;;0.60;0.52;;;;;;;;;;5042805;28;20136;-75
2023/01/15 06:47:46;;;;;;;0.50;0.40;;;;;;;;;;5041620;28;20126;-71
2023/01/15 06:50:31;;;;;;;0.55;0.40;;;;;;;;;;5052719;28;20440;-68
2023/01/15 06:53:16;;;;;;;2.05;0.50;;;;;;;;;;5049344;28;20033;-69
2023/01/15 06:56:01;;;;;;;0.60;0.60;;;;;;;;;;5032322;28;20021;-68
2023/01/15 06:58:47;;;;;;;0.40;0.40;;;;;;;;;;5042688;28;20091;-75
2023/01/15 07:01:32;;;;;;;0.40;0.40;;;;;;;;;;5030846;28;20031;-65
2023/01/15 07:04:17;;;;;;;0.40;0.40;;;;;;;;;;5046895;28;20025;-66
2023/01/15 07:07:03;;;;;;;0.40;0.40;;;;;;;;;;5034218;28;20055;-66
2023/01/15 07:09:48;;;;;;;0.47;0.45;;;;;;;;;;5045679;28;20148;-69
2023/01/15 07:12:34;;;;;;;0.50;0.50;;;;;;;;;;5045770;28;20479;-68
2023/01/15 07:15:19;;;;;;;0.50;0.50;;;;;;;;;;5049214;28;20028;-66
2023/01/15 07:18:04;;;;;;;0.40;0.40;;;;;;;;;;5046111;28;20387;-63
2023/01/15 07:20:52;;;;;;;0.40;0.40;;;;;;;;;;5046888;28;20028;-73
2023/01/15 07:23:38;;;;;;;0.55;0.43;;;;;;;;;;5053461;28;20024;-73
2023/01/15 07:26:23;;;;;;;0.40;0.40;;;;;;;;;;5047569;28;20037;-73
2023/01/15 07:29:08;;;;;;;0.40;0.40;;;;;;;;;;5044419;28;20029;-76
2023/01/15 07:31:54;;;;;;;0.43;0.43;;;;;;;;;;5042490;28;20028;-78
2023/01/15 07:34:39;;;;;;;0.40;0.40;;;;;;;;;;5056150;28;20021;-70
2023/01/15 07:37:25;;;;;;;0.57;0.50;;;;;;;;;;5041174;28;20072;-72
2023/01/15 07:40:10;;;;;;;0.40;0.40;;;;;;;;;;5043928;28;20492;-71
2023/01/15 07:52:15;;;;;;;0.55;0.50;;;;;;;;;;5041259;28;20587;-76
2023/01/15 07:55:02;;;;;;;;;;;;;;;;;;5063758;28;20056;-75
2023/01/15 07:57:48;;;;;;;2.58;0.65;;;;;;;;;;5045885;28;19913;-76
2023/01/15 08:00:33;;;;;;;0.40;0.40;;;;;;;;;;5059356;28;20024;-75
2023/01/15 08:03:18;;;;;;;0.40;0.40;;;;;;;;;;5045773;28;20063;-78
2023/01/15 08:06:03;;;;;;;0.63;0.50;;;;;;;;;;5036451;28;20029;-75
2023/01/15 08:08:48;;;;;;;0.65;0.50;;;;;;;;;;5048120;28;20067;-74
2023/01/15 08:17:43;;;;;;;0.40;0.40;;;;;;;;;;5045490;28;20032;-68
2023/01/15 08:20:28;;;;;;;0.43;0.43;;;;;;;;;;5042658;28;20052;-69
2023/01/15 08:23:14;;;;;;;0.93;0.40;;;;;;;;;;5031379;28;20068;-69
2023/01/15 08:25:59;;;;;;;0.50;0.50;;;;;;;;;;5044641;28;20048;-70
2023/01/15 08:28:44;;;;;;;0.50;0.50;;;;;;;;;;5048536;28;20021;-68
2023/01/15 08:31:29;;;;;;;0.40;0.40;;;;;;;;;;5045245;28;20464;-73
2023/01/15 08:34:15;;;;;;;1.17;0.68;;;;;;;;;;5031096;28;20032;-75
2023/01/15 08:37:00;;;;;;;0.63;0.50;;;;;;;;;;5045936;28;20025;-75
2023/01/15 08:39:45;;;;;;;3.00;0.50;;;;;;;;;;5041449;28;20048;-75
2023/01/15 08:42:30;;;;;;;0.70;0.60;;;;;;;;;;5045416;28;20036;-74
2023/01/15 08:45:15;;;;;;;0.40;0.40;;;;;;;;;;5031654;28;20051;-75
2023/01/15 08:48:01;;;;;;;0.90;0.60;;;;;;;;;;5045890;28;20037;-70
2023/01/15 08:50:46;;;;;;;0.52;0.45;;;;;;;;;;5043322;28;20046;-68
2023/01/15 08:53:31;;;;;;;1.55;0.60;;;;;;;;;;5032407;28;20303;-68
2023/01/15 08:56:17;;;;;;;0.50;0.50;;;;;;;;;;5030465;28;20380;-68
2023/01/15 08:59:03;;;;;;;1.17;0.50;;;;;;;;;;5053929;28;20102;-70
2023/01/15 09:01:49;;;;;;;0.43;0.43;;;;;;;;;;5044739;28;20060;-67
2023/01/15 09:04:34;;;;;;;0.50;0.50;;;;;;;;;;5045217;28;20510;-68
2023/01/15 09:07:19;;;;;;;1.08;0.57;;;;;;;;;;5040114;28;21922;-68
2023/01/15 09:10:05;;;;;;;0.68;0.60;;;;;;;;;;5041657;28;20098;-63
2023/01/15 09:12:50;;;;;;;0.98;0.68;;;;;;;;;;5031122;28;20044;-63
2023/01/15 09:15:35;;;;;;;0.52;0.52;;;;;;;;;;5040204;28;20051;-63
2023/01/15 09:18:21;;;;;;;1.77;0.90;;;;;;;;;;5043763;28;20045;-66
2023/01/15 09:21:06;;;;;;;2.42;0.60;;;;;;;;;;5044031;28;20123;-66
2023/01/15 09:23:51;;;;;;;1.85;0.68;;;;;;;;;;5043359;28;20117;-69
2023/01/15 09:26:38;;;;;;;0.77;0.60;;;;;;;;;;5041324;28;20495;-70
2023/01/15 09:29:23;;;;;;;0.50;0.50;;;;;;;;;;5048664;28;20020;-69
2023/01/15 09:32:09;;;;;;;0.40;0.40;;;;;;;;;;5048278;28;20036;-70
2023/01/15 09:34:54;;;;;;;0.68;0.55;;;;;;;;;;5056240;28;20343;-69
2023/01/15 09:37:39;;;;;;;0.75;0.70;;;;;;;;;;5045814;28;20028;-71
2023/01/15 09:40:43;;;;;;;1.15;0.88;;;;;;;;;;5030359;28;20084;-70
2023/01/15 09:43:37;;;;;;;0.60;0.60;;;;;;;;;;5042290;28;20032;-75
2023/01/15 09:46:33;;;;;;;0.60;0.60;;;;;;;;;;5038915;28;20104;-76
2023/01/15 09:49:21;;;;;;;1.20;0.60;;;;;;;;;;5027780;28;20035;-76
2023/01/15 09:52:17;;;;;;;1.70;1.10;;;;;;;;;;5043599;28;20078;-76
2023/01/15 09:55:14;;;;;;;1.70;0.93;;;;;;;;;;5031289;28;20580;-75
2023/01/15 09:58:01;;;;;;;0.98;0.73;;;;;;;;;;5041879;28;20031;-74
2023/01/15 10:00:50;;;;;;;0.98;0.80;;;;;;;;;;5026214;28;20037;-65
2023/01/15 10:03:48;;;;;;;0.45;0.40;;;;;;;;;;5044084;28;20025;-68
2023/01/15 10:06:42;;;;;;;0.60;0.60;;;;;;;;;;5041045;28;20076;-63
2023/01/15 10:09:34;;;;;;;0.73;0.50;;;;;;;;;;5044896;28;20477;-65
2023/01/15 10:12:34;;;;;;;0.93;0.47;;;;;;;;;;5044250;28;20108;-64
2023/01/15 10:15:20;;;;;;;0.50;0.50;;;;;;;;;;5043650;28;20076;-64
2023/01/15 10:18:07;;;;;;;0.50;0.50;;;;;;;;;;5029118;28;20045;-67
2023/01/15 10:20:53;;;;;;;0.93;0.70;;;;;;;;;;5025640;28;20491;-65
2023/01/15 10:24:01;;;;;;;0.55;0.50;;;;;;;;;;5042210;28;20087;-75
2023/01/15 10:26:54;;;;;;;0.50;0.50;;;;;;;;;;5055126;28;20032;-77
2023/01/15 10:29:44;;;;;;;0.55;0.52;;;;;;;;;;5041078;28;20476;-76
2023/01/15 10:32:29;;;;;;;0.40;0.40;;;;;;;;;;5043138;28;20036;-75
2023/01/15 10:35:33;;;;;;;0.60;0.60;;;;;;;;;;5035528;28;20388;-77
2023/01/15 10:38:28;;;;;;;0.60;0.50;;;;;;;;;;5035468;28;20057;-76
2023/01/15 10:41:22;;;;;;;0.45;0.40;;;;;;;;;;5039559;28;20078;-68
2023/01/15 10:44:10;;;;;;;0.57;0.40;;;;;;;;;;5042427;28;20451;-69
2023/01/15 10:46:59;;;;;;;1.00;0.50;;;;;;;;;;5042995;28;20112;-68
2023/01/15 10:49:45;;;;;;;1.42;1.02;;;;;;;;;;5034596;28;20039;-67
2023/01/15 10:52:31;;;;;;;0.77;0.60;;;;;;;;;;5041358;28;20036;-70
2023/01/15 10:55:25;;;;;;;0.50;0.50;;;;;;;;;;5046596;28;20031;-70
2023/01/15 10:58:37;;;;;;;0.50;0.50;;;;;;;;;;5032778;28;20029;-84
2023/01/15 11:01:24;;;;;;;0.75;0.75;;;;;;;;;;5044868;28;20107;-71
2023/01/15 11:04:12;;;;;;;0.75;0.60;;;;;;;;;;5044711;28;20362;-74
2023/01/15 11:06:59;;;;;;;0.75;0.63;;;;;;;;;;5058052;28;20104;-71
2023/01/15 11:09:45;;;;;;;0.75;0.52;;;;;;;;;;5042662;28;20150;-71
2023/01/15 11:21:44;;;;;;;0.50;0.50;;;;;;;;;;5039959;28;20484;-67
2023/01/15 11:24:29;;;;;;;4.68;0.63;;;;;;;;;;5044985;28;20029;-68
2023/01/15 11:27:17;;;;;;;3.58;2.13;;;;;;;;;;5043226;28;20040;-67
2023/01/15 11:30:03;;;;;;;1.05;0.60;;;;;;;;;;5046671;28;20101;-68
2023/01/15 11:32:53;;;;;;;1.17;0.50;;;;;;;;;;5044315;28;20535;-68
2023/01/15 11:35:48;;;;;;;1.13;0.80;;;;;;;;;;5029943;28;20021;-79
2023/01/15 11:38:44;;;;;;;2.97;0.60;;;;;;;;;;5051411;28;20052;-79
2023/01/15 11:50:51;;;;;;;1.23;0.70;;;;;;;;;;5049768;28;20032;-81
2023/01/15 11:53:40;;;;;;;0.50;0.50;;;;;;;;;;5035589;28;20024;-71
2023/01/15 11:56:27;;;;;;;0.85;0.50;;;;;;;;;;5044966;28;20029;-73
2023/01/15 11:59:16;;;;;;;0.77;0.55;;;;;;;;;;5049844;28;20415;-74
2023/01/15 12:02:05;;;;;;;0.60;0.60;;;;;;;;;;5057737;28;20104;-73
2023/01/15 12:04:55;;;;;;;1.17;0.60;;;;;;;;;;5043177;28;20311;-73
2023/01/15 12:07:41;;;;;;;1.55;0.75;;;;;;;;;;5033950;28;20044;-73
2023/01/15 12:13:34;;;;;;;0.65;0.65;;;;;;;;;;5058083;28;20472;-67
2023/01/15 12:16:25;;;;;;;0.52;0.50;;;;;;;;;;5049331;28;20353;-66
2023/01/15 12:19:16;;;;;;;1.75;0.60;;;;;;;;;;5049546;28;20035;-64
2023/01/15 12:22:20;;;;;;;4.28;0.70;;;;;;;;;;5035163;28;20023;-67
2023/01/15 12:25:11;;;;;;;0.50;0.50;;;;;;;;;;5043814;28;20392;-65
2023/01/15 12:28:12;;;;;;;1.30;0.60;;;;;;;;;;5036270;28;20404;-69
2023/01/15 12:31:00;;;;;;;1.48;0.70;;;;;;;;;;5043823;28;20032;-70
2023/01/15 12:33:50;;;;;;;2.15;0.70;;;;;;;;;;5044441;28;20032;-80
2023/01/15 12:36:35;;;;;;;;;;;;;;;;;;5033022;28;20088;-81
2023/01/15 12:39:22;;;;;;;0.60;0.60;;;;;;;;;;5040915;28;19968;-82
2023/01/15 12:45:40;;;;;;;1.35;0.60;;;;;;;;;;5042779;28;20021;-82
2023/01/15 12:48:25;;;;;;;1.05;0.80;;;;;;;;;;5044652;28;20115;-73
2023/01/15 12:51:13;;;;;;;1.10;0.70;;;;;;;;;;5031565;28;20048;-73
2023/01/15 12:54:03;;;;;;;0.80;0.77;;;;;;;;;;5033474;28;20059;-75
2023/01/15 12:56:54;;;;;;;2.35;0.68;;;;;;;;;;5047383;28;20029;-73
2023/01/15 12:59:49;;;;;;;1.15;0.60;;;;;;;;;;5043878;28;20098;-75
2023/01/15 13:02:37;;;;;;;1.08;0.70;;;;;;;;;;5046911;28;20021;-73
2023/01/15 13:05:28;;;;;;;2.80;0.80;;;;;;;;;;5039144;28;20060;-71
2023/01/15 13:08:21;;;;;;;1.25;0.80;;;;;;;;;;5028542;28;20033;-69
2023/01/15 13:11:10;;;;;;;2.45;0.88;;;;;;;;;;5042526;28;20404;-69
2023/01/15 13:13:58;;;;;;;6.10;1.40;;;;;;;;;;5037601;28;20082;-70
2023/01/15 13:16:58;;;;;;;7.82;2.28;;;;;;;;;;5047967;28;20031;-73
2023/01/15 13:19:45;;;;;;;4.43;1.40;;;;;;;;;;5043984;28;20025;-71
2023/01/15 13:22:31;;;;;;;1.52;0.85;;;;;;;;;;5043429;28;20033;-72
2023/01/15 13:25:28;;;;;;;1.20;1.10;;;;;;;;;;5032808;28;20025;-73
2023/01/15 13:28:31;;;;;;;1.13;0.80;;;;;;;;;;5034011;28;20028;-77
2023/01/15 13:31:23;;;;;;;2.53;0.88;;;;;;;;;;5056246;28;20052;-75
2023/01/15 13:34:16;;;;;;;3.88;1.60;;;;;;;;;;5045299;28;20064;-75
2023/01/15 13:37:13;;;;;;;1.08;0.82;;;;;;;;;;5043108;28;20029;-75
2023/01/15 13:40:08;;;;;;;1.50;0.70;;;;;;;;;;5042002;28;20056;-76
2023/01/15 13:42:53;;;;;;;2.15;0.90;;;;;;;;;;5025895;28;20483;-76
2023/01/15 13:45:40;;;;;;;3.00;1.17;;;;;;;;;;5045871;28;20336;-75
2023/01/15 13:48:30;;;;;;;3.03;1.55;;;;;;;;;;5046519;28;20110;-79
2023/01/15 13:51:25;;;;;;;3.47;1.10;;;;;;;;;;5028168;28;20021;-80
2023/01/15 13:54:18;;;;;;;3.78;0.80;;;;;;;;;;5048610;28;20078;-81
2023/01/15 13:57:20;;;;;;;0.75;0.70;;;;;;;;;;5038105;28;20406;-79
2023/01/15 14:00:25;;;;;;;2.00;0.80;;;;;;;;;;5043327;28;20041;-72
2023/01/15 14:03:30;;;;;;;1.85;0.88;;;;;;;;;;5041362;28;20029;-69
2023/01/15 14:06:15;;;;;;;2.05;0.75;;;;;;;;;;5040948;28;20028;-69
2023/01/15 14:09:00;;;;;;;1.75;0.85;;;;;;;;;;5042814;28;20556;-68
2023/01/15 14:12:04;;;;;;;4.78;1.10;;;;;;;;;;5041421;28;20032;-68
2023/01/15 14:15:08;;;;;;;3.33;1.30;;;;;;;;;;5035811;28;20025;-68
2023/01/15 14:18:00;;;;;;;1.95;1.17;;;;;;;;;;5045517;28;20012;-69
2023/01/15 14:20:51;;;;;;;2.65;0.75;;;;;;;;;;5045638;28;20039;-68
2023/01/15 14:23:52;;;;;;;2.55;0.80;;;;;;;;;;5042377;28;20025;-70
2023/01/15 14:26:59;;;;;;;1.77;0.90;;;;;;;;;;5042744;28;20029;-69
2023/01/15 14:29:44;;;;;;;2.08;1.00;;;;;;;;;;5055598;28;20056;-69
2023/01/15 14:32:29;;;;;;;2.08;0.82;;;;;;;;;;5043711;28;20033;-69
2023/01/15 14:35:18;;;;;;;5.38;1.33;;;;;;;;;;5043020;28;20043;-69
2023/01/15 14:38:05;;;;;;;2.37;0.80;;;;;;;;;;5027506;28;20060;-69
2023/01/15 14:41:02;;;;;;;2.17;0.80;;;;;;;;;;5026784;28;20025;-77
2023/01/15 14:43:48;;;;;;;3.42;1.15;;;;;;;;;;5035768;28;20373;-80
2023/01/15 14:46:33;;;;;;;3.70;0.90;;;;;;;;;;5043067;28;20037;-78
2023/01/15 14:49:29;;;;;;;3.75;1.35;;;;;;;;;;5046542;28;20077;-77
2023/01/15 14:52:22;;;;;;;2.08;1.00;;;;;;;;;;5035362;28;20032;-79
2023/01/15 14:55:09;;;;;;;2.25;1.00;;;;;;;;;;5030601;28;20082;-70
2023/01/15 14:57:57;;;;;;;2.58;1.25;;;;;;;;;;5026355;28;20491;-68
2023/01/15 15:00:44;;;;;;;2.85;1.30;;;;;;;;;;5055619;28;20594;-68
2023/01/15 15:03:34;;;;;;;1.17;0.80;;;;;;;;;;5042497;28;20021;-68
2023/01/15 15:06:20;;;;;;;2.53;1.10;;;;;;;;;;5036503;28;20465;-69
2023/01/15 15:09:12;;;;;;;1.67;0.85;;;;;;;;;;5046233;28;20127;-68
2023/01/15 15:12:17;;;;;;;5.65;1.88;;;;;;;;;;5048456;28;20021;-67
2023/01/15 15:15:09;;;;;;;3.50;0.77;;;;;;;;;;5048819;28;20395;-69
2023/01/15 15:17:58;;;;;;;3.53;1.80;;;;;;;;;;5050280;28;20032;-73
2023/01/15 15:20:52;;;;;;;4.65;1.58;;;;;;;;;;5050715;28;20044;-71
2023/01/15 15:23:43;;;;;;;1.73;0.88;;;;;;;;;;5064522;28;20041;-73
2023/01/15 15:26:30;;;;;;;4.72;1.00;;;;;;;;;;5030777;28;20037;-72
2023/01/15 15:29:17;;;;;;;1.08;0.90;;;;;;;;;;5050084;28;20392;-73
2023/01/15 15:32:02;;;;;;;2.47;1.02;;;;;;;;;;5049730;28;20017;-71
2023/01/15 15:34:52;;;;;;;3.33;0.90;;;;;;;;;;5030834;28;20117;-67
2023/01/15 15:37:42;;;;;;;2.25;1.00;;;;;;;;;;5062717;28;20452;-71
2023/01/15 15:40:30;;;;;;;1.60;0.70;;;;;;;;;;5050000;28;20057;-77
2023/01/15 15:49:37;;;;;;;2.40;1.10;;;;;;;;;;5050135;28;20071;-71
2023/01/15 15:52:24;;;;;;;4.07;1.67;;;;;;;;;;5062380;28;20021;-67
2023/01/15 15:55:13;;;;;;;3.65;0.90;;;;;;;;;;5058322;28;20499;-69
2023/01/15 15:58:00;;;;;;;3.75;1.33;;;;;;;;;;5049312;28;20040;-69
2023/01/15 16:00:45;;;;;;;4.20;2.03;;;;;;;;;;5049804;28;20502;-66
2023/01/15 16:03:31;;;;;;;2.47;1.33;;;;;;;;;;5037339;28;20037;-67
2023/01/15 16:06:20;;;;;;;4.03;1.70;;;;;;;;;;5049962;28;20024;-68
2023/01/15 16:09:08;;;;;;;4.40;1.50;;;;;;;;;;5049787;28;20063;-71
2023/01/15 16:11:54;;;;;;;2.42;1.17;;;;;;;;;;5039366;28;20430;-68
2023/01/15 16:14:40;;;;;;;3.85;1.20;;;;;;;;;;5048896;28;20044;-69
2023/01/15 16:17:25;;;;;;;2.97;1.27;;;;;;;;;;5048555;28;20269;-68
2023/01/15 16:20:12;;;;;;;2.67;1.10;;;;;;;;;;5048435;28;20029;-69
2023/01/15 16:22:58;;;;;;;3.03;1.10;;;;;;;;;;5048088;28;20028;-69
2023/01/15 16:25:53;;;;;;;2.50;1.38;;;;;;;;;;5032963;28;20085;-70
2023/01/15 16:28:43;;;;;;;3.15;1.00;;;;;;;;;;5050898;28;20044;-70
2023/01/15 16:31:35;;;;;;;2.15;0.95;;;;;;;;;;5048589;28;20568;-79
2023/01/15 16:34:22;;;;;;;3.97;1.20;;;;;;;;;;5032249;28;20860;-75
2023/01/15 16:37:30;;;;;;;5.78;2.10;;;;;;;;;;5034575;28;20024;-79
2023/01/15 16:40:21;;;;;;;5.50;1.92;;;;;;;;;;5049148;28;20053;-79
2023/01/15 16:43:07;;;;;;;3.45;1.33;;;;;;;;;;5043465;28;20070;-76
2023/01/15 16:45:52;;;;;;;3.08;1.10;;;;;;;;;;5045377;28;20381;-69
2023/01/15 16:48:38;;;;;;;3.15;1.15;;;;;;;;;;5045577;28;20416;-68
2023/01/15 16:51:24;;;;;;;4.10;1.25;;;;;;;;;;5042646;28;20033;-70
2023/01/15 16:54:29;;;;;;;3.60;1.55;;;;;;;;;;5043303;28;20033;-70
2023/01/15 16:57:25;;;;;;;5.55;2.28;;;;;;;;;;5042742;28;20104;-69
2023/01/15 17:00:24;;;;;;;2.38;1.20;;;;;;;;;;5050116;28;20086;-70
2023/01/15 17:03:20;;;;;;;1.52;1.38;;;;;;;;;;5036576;28;20020;-72
2023/01/15 17:06:11;;;;;;;2.97;1.20;;;;;;;;;;5039327;28;20033;-68
2023/01/15 17:08:57;;;;;;;1.10;0.90;;;;;;;;;;5041264;28;20106;-70
2023/01/15 17:11:48;;;;;;;2.17;1.00;;;;;;;;;;5038948;28;20021;-66
2023/01/15 17:14:33;;;;;;;2.50;1.35;;;;;;;;;;5045061;28;20037;-66
2023/01/15 17:17:21;;;;;;;6.93;1.67;;;;;;;;;;5046945;28;20567;-65
2023/01/15 17:20:08;;;;;;;2.03;1.23;;;;;;;;;;5050857;28;20060;-65
2023/01/15 17:22:54;;;;;;;4.63;1.08;;;;;;;;;;5040752;28;20029;-66
2023/01/15 17:25:39;;;;;;;1.92;1.05;;;;;;;;;;5044925;28;20024;-77
2023/01/15 17:28:24;;;;;;;3.63;1.10;;;;;;;;;;5032570;28;20032;-76
2023/01/15 17:31:29;;;;;;;3.50;1.30;;;;;;;;;;5055220;28;20024;-77
2023/01/15 17:34:15;;;;;;;2.40;1.20;;;;;;;;;;5047900;28;20446;-77
2023/01/15 17:37:00;;;;;;;3.28;1.20;;;;;;;;;;5030104;28;20032;-76
2023/01/15 17:39:45;;;;;;;10.00;3.38;;;;;;;;;;5046841;28;20465;-76
2023/01/15 17:42:30;;;;;;;4.72;2.08;;;;;;;;;;5046071;28;20123;-71
2023/01/15 17:45:17;;;;;;;5.47;1.38;;;;;;;;;;5046984;28;20049;-71
2023/01/15 17:48:07;;;;;;;3.42;1.23;;;;;;;;;;5045019;28;20033;-70
2023/01/15 17:50:54;;;;;;;3.33;1.30;;;;;;;;;;5037922;28;20041;-69
2023/01/15 17:53:39;;;;;;;2.85;1.40;;;;;;;;;;5033389;28;20029;-70